X  Kiinni Metar Aviation säätiedot     EDDK Cologne Bonn Airport
Lämpötila
52°F Lämpötila
52°F Kastepiste
100% Kosteus



Tuuli
2 MPH
3 KM/T
1 M/S
2 KTS



Rauhoittaa
P
Nykyiset olosuhteet

Kirkas Kirkas
Paine 1017.95 (hPa) - 30.06 (inHg)
Näkyvyys 6 (maili) - 9.7 (km)
Lentokenttä
Lentokentän koodi EDDK

Sijainti: Cologne Bonn Airport
Etäisyys: 56 (mi)

Metar:
EDDK 252320Z AUTO VRB02KT CAVOK 11/11 Q1018 NOSIG

Aika: 2024-05-26 01:20 CEST